sensor_id;sensor_type;location;lat;lon;timestamp;P1;durP1;ratioP1;P2;durP2;ratioP2
71558;SDS011;59382;43.852;25.952;2024-03-06T00:00:47;13.35;;;6.28;;
71558;SDS011;59382;43.852;25.952;2024-03-06T00:03:13;19.33;;;8.57;;
71558;SDS011;59382;43.852;25.952;2024-03-06T00:05:38;13.60;;;7.13;;
71558;SDS011;59382;43.852;25.952;2024-03-06T00:08:04;10.38;;;5.70;;
71558;SDS011;59382;43.852;25.952;2024-03-06T00:10:30;21.33;;;6.68;;
71558;SDS011;59382;43.852;25.952;2024-03-06T00:12:55;19.08;;;6.30;;
71558;SDS011;59382;43.852;25.952;2024-03-06T00:15:21;15.68;;;6.32;;
71558;SDS011;59382;43.852;25.952;2024-03-06T00:17:46;11.88;;;6.40;;
71558;SDS011;59382;43.852;25.952;2024-03-06T00:20:12;13.40;;;6.28;;
71558;SDS011;59382;43.852;25.952;2024-03-06T00:22:39;10.75;;;5.80;;
71558;SDS011;59382;43.852;25.952;2024-03-06T00:25:05;17.95;;;6.75;;
71558;SDS011;59382;43.852;25.952;2024-03-06T00:27:31;17.58;;;6.38;;
71558;SDS011;59382;43.852;25.952;2024-03-06T00:29:56;14.00;;;6.88;;
71558;SDS011;59382;43.852;25.952;2024-03-06T00:32:22;20.33;;;6.85;;
71558;SDS011;59382;43.852;25.952;2024-03-06T00:34:48;13.90;;;6.22;;
71558;SDS011;59382;43.852;25.952;2024-03-06T00:37:14;15.40;;;7.10;;
71558;SDS011;59382;43.852;25.952;2024-03-06T00:39:39;19.15;;;7.05;;
71558;SDS011;59382;43.852;25.952;2024-03-06T00:42:05;15.50;;;7.03;;
71558;SDS011;59382;43.852;25.952;2024-03-06T00:44:30;14.05;;;6.72;;
71558;SDS011;59382;43.852;25.952;2024-03-06T00:46:56;15.52;;;6.82;;
71558;SDS011;59382;43.852;25.952;2024-03-06T00:49:22;14.95;;;6.68;;
71558;SDS011;59382;43.852;25.952;2024-03-06T00:51:47;16.23;;;7.63;;
71558;SDS011;59382;43.852;25.952;2024-03-06T00:54:13;15.48;;;6.97;;
71558;SDS011;59382;43.852;25.952;2024-03-06T00:56:39;19.23;;;6.85;;
71558;SDS011;59382;43.852;25.952;2024-03-06T00:59:04;13.32;;;7.57;;
71558;SDS011;59382;43.852;25.952;2024-03-06T01:01:30;11.50;;;5.75;;
71558;SDS011;59382;43.852;25.952;2024-03-06T01:03:55;17.05;;;7.38;;
71558;SDS011;59382;43.852;25.952;2024-03-06T01:06:21;15.20;;;6.28;;
71558;SDS011;59382;43.852;25.952;2024-03-06T01:08:47;17.45;;;6.93;;
71558;SDS011;59382;43.852;25.952;2024-03-06T01:11:12;14.73;;;8.10;;
71558;SDS011;59382;43.852;25.952;2024-03-06T01:13:40;18.05;;;7.55;;
71558;SDS011;59382;43.852;25.952;2024-03-06T01:16:05;16.85;;;7.18;;
71558;SDS011;59382;43.852;25.952;2024-03-06T01:18:31;12.27;;;6.72;;
71558;SDS011;59382;43.852;25.952;2024-03-06T01:20:57;21.67;;;8.02;;
71558;SDS011;59382;43.852;25.952;2024-03-06T01:23:23;14.55;;;6.95;;
71558;SDS011;59382;43.852;25.952;2024-03-06T01:25:48;18.38;;;7.68;;
71558;SDS011;59382;43.852;25.952;2024-03-06T01:28:14;18.40;;;7.43;;
71558;SDS011;59382;43.852;25.952;2024-03-06T01:30:40;18.98;;;7.25;;
71558;SDS011;59382;43.852;25.952;2024-03-06T01:33:05;23.17;;;7.13;;
71558;SDS011;59382;43.852;25.952;2024-03-06T01:35:31;18.45;;;7.32;;
71558;SDS011;59382;43.852;25.952;2024-03-06T01:37:57;33.72;;;8.23;;
71558;SDS011;59382;43.852;25.952;2024-03-06T01:40:23;21.85;;;7.75;;
71558;SDS011;59382;43.852;25.952;2024-03-06T01:42:49;17.48;;;7.30;;
71558;SDS011;59382;43.852;25.952;2024-03-06T01:45:15;19.27;;;6.90;;
71558;SDS011;59382;43.852;25.952;2024-03-06T01:47:40;17.40;;;7.22;;
71558;SDS011;59382;43.852;25.952;2024-03-06T01:50:06;21.27;;;7.88;;
71558;SDS011;59382;43.852;25.952;2024-03-06T01:52:34;21.73;;;8.13;;
71558;SDS011;59382;43.852;25.952;2024-03-06T01:55:01;19.73;;;7.78;;
71558;SDS011;59382;43.852;25.952;2024-03-06T01:57:27;20.15;;;7.60;;
71558;SDS011;59382;43.852;25.952;2024-03-06T01:59:53;16.38;;;6.82;;
71558;SDS011;59382;43.852;25.952;2024-03-06T02:02:19;14.75;;;6.05;;
71558;SDS011;59382;43.852;25.952;2024-03-06T02:04:45;16.20;;;7.32;;
71558;SDS011;59382;43.852;25.952;2024-03-06T02:07:11;14.13;;;6.38;;
71558;SDS011;59382;43.852;25.952;2024-03-06T02:09:39;12.70;;;6.22;;
71558;SDS011;59382;43.852;25.952;2024-03-06T02:12:05;20.70;;;7.45;;
71558;SDS011;59382;43.852;25.952;2024-03-06T02:14:35;15.90;;;7.57;;
71558;SDS011;59382;43.852;25.952;2024-03-06T02:17:01;15.45;;;6.13;;
71558;SDS011;59382;43.852;25.952;2024-03-06T02:19:43;16.13;;;7.55;;
71558;SDS011;59382;43.852;25.952;2024-03-06T02:22:09;11.75;;;6.32;;
71558;SDS011;59382;43.852;25.952;2024-03-06T02:24:36;16.77;;;6.68;;
71558;SDS011;59382;43.852;25.952;2024-03-06T02:27:03;9.50;;;5.80;;
71558;SDS011;59382;43.852;25.952;2024-03-06T02:29:32;8.93;;;5.57;;
71558;SDS011;59382;43.852;25.952;2024-03-06T02:32:00;13.18;;;6.28;;
71558;SDS011;59382;43.852;25.952;2024-03-06T02:34:29;8.40;;;5.22;;
71558;SDS011;59382;43.852;25.952;2024-03-06T02:36:57;18.10;;;5.78;;
71558;SDS011;59382;43.852;25.952;2024-03-06T02:39:23;12.23;;;6.82;;
71558;SDS011;59382;43.852;25.952;2024-03-06T02:41:49;14.70;;;6.20;;
71558;SDS011;59382;43.852;25.952;2024-03-06T02:44:14;15.73;;;6.40;;
71558;SDS011;59382;43.852;25.952;2024-03-06T02:46:41;12.70;;;6.70;;
71558;SDS011;59382;43.852;25.952;2024-03-06T02:49:12;11.68;;;6.78;;
71558;SDS011;59382;43.852;25.952;2024-03-06T02:51:38;15.25;;;7.28;;
71558;SDS011;59382;43.852;25.952;2024-03-06T02:54:03;15.25;;;6.43;;
71558;SDS011;59382;43.852;25.952;2024-03-06T02:56:29;15.80;;;6.97;;
71558;SDS011;59382;43.852;25.952;2024-03-06T02:58:55;18.42;;;7.85;;
71558;SDS011;59382;43.852;25.952;2024-03-06T03:01:20;19.38;;;7.10;;
71558;SDS011;59382;43.852;25.952;2024-03-06T03:03:46;14.82;;;6.72;;
71558;SDS011;59382;43.852;25.952;2024-03-06T03:06:12;15.95;;;7.35;;
71558;SDS011;59382;43.852;25.952;2024-03-06T03:08:38;11.05;;;6.75;;
71558;SDS011;59382;43.852;25.952;2024-03-06T03:11:05;10.90;;;6.00;;
71558;SDS011;59382;43.852;25.952;2024-03-06T03:13:30;15.32;;;7.18;;
71558;SDS011;59382;43.852;25.952;2024-03-06T03:15:56;17.83;;;7.32;;
71558;SDS011;59382;43.852;25.952;2024-03-06T03:18:22;16.60;;;7.95;;
71558;SDS011;59382;43.852;25.952;2024-03-06T03:20:47;12.05;;;7.30;;
71558;SDS011;59382;43.852;25.952;2024-03-06T03:23:13;15.30;;;5.80;;
71558;SDS011;59382;43.852;25.952;2024-03-06T03:25:40;16.50;;;7.60;;
71558;SDS011;59382;43.852;25.952;2024-03-06T03:28:06;12.40;;;6.90;;
71558;SDS011;59382;43.852;25.952;2024-03-06T03:30:32;16.20;;;7.97;;
71558;SDS011;59382;43.852;25.952;2024-03-06T03:32:58;14.73;;;7.90;;
71558;SDS011;59382;43.852;25.952;2024-03-06T03:35:23;18.98;;;7.45;;
71558;SDS011;59382;43.852;25.952;2024-03-06T03:37:59;20.17;;;7.88;;
71558;SDS011;59382;43.852;25.952;2024-03-06T03:40:24;16.77;;;8.07;;
71558;SDS011;59382;43.852;25.952;2024-03-06T03:42:50;15.68;;;7.82;;
71558;SDS011;59382;43.852;25.952;2024-03-06T03:45:15;21.60;;;6.88;;
71558;SDS011;59382;43.852;25.952;2024-03-06T03:47:41;17.65;;;7.63;;
71558;SDS011;59382;43.852;25.952;2024-03-06T03:50:08;19.88;;;7.35;;
71558;SDS011;59382;43.852;25.952;2024-03-06T03:52:34;16.98;;;7.63;;
71558;SDS011;59382;43.852;25.952;2024-03-06T03:54:59;13.50;;;6.93;;
71558;SDS011;59382;43.852;25.952;2024-03-06T03:57:25;20.25;;;8.63;;
71558;SDS011;59382;43.852;25.952;2024-03-06T03:59:51;15.35;;;7.13;;
71558;SDS011;59382;43.852;25.952;2024-03-06T04:02:16;15.38;;;7.65;;
71558;SDS011;59382;43.852;25.952;2024-03-06T04:04:42;18.30;;;7.63;;
71558;SDS011;59382;43.852;25.952;2024-03-06T04:07:07;17.60;;;8.18;;
71558;SDS011;59382;43.852;25.952;2024-03-06T04:09:33;15.98;;;8.30;;
71558;SDS011;59382;43.852;25.952;2024-03-06T04:12:04;16.98;;;8.40;;
71558;SDS011;59382;43.852;25.952;2024-03-06T04:14:30;19.27;;;8.43;;
71558;SDS011;59382;43.852;25.952;2024-03-06T04:16:55;26.73;;;8.77;;
71558;SDS011;59382;43.852;25.952;2024-03-06T04:19:21;18.75;;;8.27;;
71558;SDS011;59382;43.852;25.952;2024-03-06T04:21:47;14.48;;;7.45;;
71558;SDS011;59382;43.852;25.952;2024-03-06T04:24:12;18.15;;;8.23;;
71558;SDS011;59382;43.852;25.952;2024-03-06T04:26:38;22.15;;;7.63;;
71558;SDS011;59382;43.852;25.952;2024-03-06T04:29:03;17.88;;;8.52;;
71558;SDS011;59382;43.852;25.952;2024-03-06T04:31:29;19.77;;;9.20;;
71558;SDS011;59382;43.852;25.952;2024-03-06T04:33:54;13.77;;;8.18;;
71558;SDS011;59382;43.852;25.952;2024-03-06T04:36:20;18.02;;;8.20;;
71558;SDS011;59382;43.852;25.952;2024-03-06T04:38:45;13.77;;;7.93;;
71558;SDS011;59382;43.852;25.952;2024-03-06T04:41:11;22.80;;;7.43;;
71558;SDS011;59382;43.852;25.952;2024-03-06T04:43:36;14.52;;;7.50;;
71558;SDS011;59382;43.852;25.952;2024-03-06T04:46:03;15.88;;;7.65;;
71558;SDS011;59382;43.852;25.952;2024-03-06T04:48:29;15.57;;;7.65;;
71558;SDS011;59382;43.852;25.952;2024-03-06T04:50:54;21.77;;;8.32;;
71558;SDS011;59382;43.852;25.952;2024-03-06T04:53:20;17.55;;;7.10;;
71558;SDS011;59382;43.852;25.952;2024-03-06T04:55:45;22.00;;;9.07;;
71558;SDS011;59382;43.852;25.952;2024-03-06T04:58:11;22.23;;;8.25;;
71558;SDS011;59382;43.852;25.952;2024-03-06T05:00:38;20.60;;;8.20;;
71558;SDS011;59382;43.852;25.952;2024-03-06T05:03:03;18.83;;;8.10;;
71558;SDS011;59382;43.852;25.952;2024-03-06T05:05:29;20.48;;;8.93;;
71558;SDS011;59382;43.852;25.952;2024-03-06T05:07:55;18.27;;;8.45;;
71558;SDS011;59382;43.852;25.952;2024-03-06T05:10:20;24.27;;;8.02;;
71558;SDS011;59382;43.852;25.952;2024-03-06T05:12:46;17.42;;;8.43;;
71558;SDS011;59382;43.852;25.952;2024-03-06T05:15:13;17.73;;;8.48;;
71558;SDS011;59382;43.852;25.952;2024-03-06T05:17:38;18.30;;;8.23;;
71558;SDS011;59382;43.852;25.952;2024-03-06T05:20:04;27.13;;;9.07;;
71558;SDS011;59382;43.852;25.952;2024-03-06T05:22:30;16.50;;;7.82;;
71558;SDS011;59382;43.852;25.952;2024-03-06T05:24:56;16.38;;;8.48;;
71558;SDS011;59382;43.852;25.952;2024-03-06T05:27:23;17.40;;;8.30;;
71558;SDS011;59382;43.852;25.952;2024-03-06T05:29:49;21.38;;;9.95;;
71558;SDS011;59382;43.852;25.952;2024-03-06T05:32:14;28.10;;;10.98;;
71558;SDS011;59382;43.852;25.952;2024-03-06T05:34:40;29.02;;;9.57;;
71558;SDS011;59382;43.852;25.952;2024-03-06T05:37:05;25.42;;;9.60;;
71558;SDS011;59382;43.852;25.952;2024-03-06T05:39:31;29.33;;;9.70;;
71558;SDS011;59382;43.852;25.952;2024-03-06T05:41:59;39.13;;;12.35;;
71558;SDS011;59382;43.852;25.952;2024-03-06T05:44:27;28.90;;;10.85;;
71558;SDS011;59382;43.852;25.952;2024-03-06T05:46:53;33.25;;;10.95;;
71558;SDS011;59382;43.852;25.952;2024-03-06T05:49:19;36.15;;;11.40;;
71558;SDS011;59382;43.852;25.952;2024-03-06T05:51:44;26.10;;;9.50;;
71558;SDS011;59382;43.852;25.952;2024-03-06T05:54:10;30.80;;;9.75;;
71558;SDS011;59382;43.852;25.952;2024-03-06T05:56:36;23.15;;;9.07;;
71558;SDS011;59382;43.852;25.952;2024-03-06T05:59:02;28.27;;;11.30;;
71558;SDS011;59382;43.852;25.952;2024-03-06T06:01:30;19.67;;;9.13;;
71558;SDS011;59382;43.852;25.952;2024-03-06T06:03:56;23.92;;;9.77;;
71558;SDS011;59382;43.852;25.952;2024-03-06T06:06:22;26.63;;;9.43;;
71558;SDS011;59382;43.852;25.952;2024-03-06T06:08:47;25.65;;;10.25;;
71558;SDS011;59382;43.852;25.952;2024-03-06T06:11:13;27.10;;;9.05;;
71558;SDS011;59382;43.852;25.952;2024-03-06T06:13:38;24.48;;;9.55;;
71558;SDS011;59382;43.852;25.952;2024-03-06T06:16:04;19.40;;;9.73;;
71558;SDS011;59382;43.852;25.952;2024-03-06T06:18:30;17.52;;;8.18;;
71558;SDS011;59382;43.852;25.952;2024-03-06T06:20:57;22.88;;;9.52;;
71558;SDS011;59382;43.852;25.952;2024-03-06T06:23:23;27.83;;;10.07;;
71558;SDS011;59382;43.852;25.952;2024-03-06T06:25:49;30.77;;;11.05;;
71558;SDS011;59382;43.852;25.952;2024-03-06T06:28:14;19.77;;;9.90;;
71558;SDS011;59382;43.852;25.952;2024-03-06T06:30:40;22.48;;;10.25;;
71558;SDS011;59382;43.852;25.952;2024-03-06T06:33:06;26.67;;;10.30;;
71558;SDS011;59382;43.852;25.952;2024-03-06T06:35:32;28.45;;;9.90;;
71558;SDS011;59382;43.852;25.952;2024-03-06T06:37:59;19.20;;;9.48;;
71558;SDS011;59382;43.852;25.952;2024-03-06T06:40:25;17.85;;;9.45;;
71558;SDS011;59382;43.852;25.952;2024-03-06T06:42:53;17.83;;;9.07;;
71558;SDS011;59382;43.852;25.952;2024-03-06T06:45:19;20.77;;;8.32;;
71558;SDS011;59382;43.852;25.952;2024-03-06T06:47:49;21.75;;;10.23;;
71558;SDS011;59382;43.852;25.952;2024-03-06T06:50:16;20.98;;;8.60;;
71558;SDS011;59382;43.852;25.952;2024-03-06T06:52:43;20.67;;;9.82;;
71558;SDS011;59382;43.852;25.952;2024-03-06T06:55:09;19.02;;;9.07;;
71558;SDS011;59382;43.852;25.952;2024-03-06T06:57:36;19.35;;;8.45;;
71558;SDS011;59382;43.852;25.952;2024-03-06T07:00:03;25.90;;;10.00;;
71558;SDS011;59382;43.852;25.952;2024-03-06T07:02:41;16.65;;;7.80;;
71558;SDS011;59382;43.852;25.952;2024-03-06T07:05:07;21.55;;;9.20;;
71558;SDS011;59382;43.852;25.952;2024-03-06T07:07:34;17.88;;;8.60;;
71558;SDS011;59382;43.852;25.952;2024-03-06T07:10:01;18.05;;;8.27;;
71558;SDS011;59382;43.852;25.952;2024-03-06T07:12:27;19.95;;;9.05;;
71558;SDS011;59382;43.852;25.952;2024-03-06T07:14:53;17.42;;;8.65;;
71558;SDS011;59382;43.852;25.952;2024-03-06T07:17:19;20.83;;;8.20;;
71558;SDS011;59382;43.852;25.952;2024-03-06T07:19:44;20.30;;;8.63;;
71558;SDS011;59382;43.852;25.952;2024-03-06T07:22:10;20.38;;;10.07;;
71558;SDS011;59382;43.852;25.952;2024-03-06T07:24:36;18.85;;;7.82;;
71558;SDS011;59382;43.852;25.952;2024-03-06T07:27:02;15.35;;;8.23;;
71558;SDS011;59382;43.852;25.952;2024-03-06T07:29:28;15.45;;;7.70;;
71558;SDS011;59382;43.852;25.952;2024-03-06T07:31:53;20.60;;;8.30;;
71558;SDS011;59382;43.852;25.952;2024-03-06T07:34:19;16.33;;;7.80;;
71558;SDS011;59382;43.852;25.952;2024-03-06T07:36:46;16.45;;;7.85;;
71558;SDS011;59382;43.852;25.952;2024-03-06T07:39:13;14.93;;;8.15;;
71558;SDS011;59382;43.852;25.952;2024-03-06T07:41:41;18.38;;;7.13;;
71558;SDS011;59382;43.852;25.952;2024-03-06T07:44:07;21.58;;;8.15;;
71558;SDS011;59382;43.852;25.952;2024-03-06T07:46:34;18.38;;;8.38;;
71558;SDS011;59382;43.852;25.952;2024-03-06T07:49:00;13.88;;;7.43;;
71558;SDS011;59382;43.852;25.952;2024-03-06T07:51:25;14.30;;;6.80;;
71558;SDS011;59382;43.852;25.952;2024-03-06T07:53:51;13.90;;;7.43;;
71558;SDS011;59382;43.852;25.952;2024-03-06T07:56:17;14.57;;;6.28;;
71558;SDS011;59382;43.852;25.952;2024-03-06T07:58:43;17.25;;;7.47;;
71558;SDS011;59382;43.852;25.952;2024-03-06T08:01:09;25.10;;;7.07;;
71558;SDS011;59382;43.852;25.952;2024-03-06T08:03:38;12.30;;;6.32;;
71558;SDS011;59382;43.852;25.952;2024-03-06T08:06:04;14.55;;;7.00;;
71558;SDS011;59382;43.852;25.952;2024-03-06T08:08:30;15.27;;;7.43;;
71558;SDS011;59382;43.852;25.952;2024-03-06T08:10:56;14.95;;;7.03;;
71558;SDS011;59382;43.852;25.952;2024-03-06T08:13:21;22.17;;;8.68;;
71558;SDS011;59382;43.852;25.952;2024-03-06T08:15:47;14.60;;;6.40;;
71558;SDS011;59382;43.852;25.952;2024-03-06T08:18:12;17.27;;;7.70;;
71558;SDS011;59382;43.852;25.952;2024-03-06T08:20:39;15.27;;;6.75;;
71558;SDS011;59382;43.852;25.952;2024-03-06T08:23:08;16.83;;;6.70;;
71558;SDS011;59382;43.852;25.952;2024-03-06T08:25:35;15.38;;;6.63;;
71558;SDS011;59382;43.852;25.952;2024-03-06T08:28:00;18.45;;;7.15;;
71558;SDS011;59382;43.852;25.952;2024-03-06T08:30:28;13.63;;;7.30;;
71558;SDS011;59382;43.852;25.952;2024-03-06T08:32:58;18.05;;;6.82;;
71558;SDS011;59382;43.852;25.952;2024-03-06T08:35:23;13.48;;;7.40;;
71558;SDS011;59382;43.852;25.952;2024-03-06T08:37:49;18.30;;;8.20;;
71558;SDS011;59382;43.852;25.952;2024-03-06T08:40:15;17.77;;;8.95;;
71558;SDS011;59382;43.852;25.952;2024-03-06T08:42:49;15.68;;;7.03;;
71558;SDS011;59382;43.852;25.952;2024-03-06T08:45:15;16.88;;;8.38;;
71558;SDS011;59382;43.852;25.952;2024-03-06T08:47:42;16.83;;;7.13;;
71558;SDS011;59382;43.852;25.952;2024-03-06T08:50:11;9.60;;;6.05;;
71558;SDS011;59382;43.852;25.952;2024-03-06T08:52:38;11.20;;;6.35;;
71558;SDS011;59382;43.852;25.952;2024-03-06T08:55:04;12.10;;;6.88;;
71558;SDS011;59382;43.852;25.952;2024-03-06T08:57:33;16.15;;;7.95;;
71558;SDS011;59382;43.852;25.952;2024-03-06T09:00:06;13.48;;;6.90;;
71558;SDS011;59382;43.852;25.952;2024-03-06T09:02:39;13.93;;;6.90;;
71558;SDS011;59382;43.852;25.952;2024-03-06T09:05:08;18.80;;;7.47;;
71558;SDS011;59382;43.852;25.952;2024-03-06T09:07:35;12.38;;;6.25;;
71558;SDS011;59382;43.852;25.952;2024-03-06T09:10:09;13.93;;;6.25;;
71558;SDS011;59382;43.852;25.952;2024-03-06T09:12:36;13.32;;;7.20;;
71558;SDS011;59382;43.852;25.952;2024-03-06T09:15:02;18.50;;;6.70;;
71558;SDS011;59382;43.852;25.952;2024-03-06T09:17:28;11.75;;;6.20;;
71558;SDS011;59382;43.852;25.952;2024-03-06T09:19:55;13.90;;;6.93;;
71558;SDS011;59382;43.852;25.952;2024-03-06T09:22:21;12.55;;;6.60;;
71558;SDS011;59382;43.852;25.952;2024-03-06T09:24:47;15.18;;;7.30;;
71558;SDS011;59382;43.852;25.952;2024-03-06T09:27:13;14.25;;;6.72;;
71558;SDS011;59382;43.852;25.952;2024-03-06T09:29:39;15.48;;;6.68;;
71558;SDS011;59382;43.852;25.952;2024-03-06T09:32:06;12.63;;;6.55;;
71558;SDS011;59382;43.852;25.952;2024-03-06T09:34:31;15.32;;;6.40;;
71558;SDS011;59382;43.852;25.952;2024-03-06T09:36:57;13.68;;;6.20;;
71558;SDS011;59382;43.852;25.952;2024-03-06T09:39:22;10.60;;;6.00;;
71558;SDS011;59382;43.852;25.952;2024-03-06T09:41:49;15.73;;;6.57;;
71558;SDS011;59382;43.852;25.952;2024-03-06T09:44:16;16.35;;;6.60;;
71558;SDS011;59382;43.852;25.952;2024-03-06T09:46:42;16.75;;;6.95;;
71558;SDS011;59382;43.852;25.952;2024-03-06T09:49:13;11.05;;;6.05;;
71558;SDS011;59382;43.852;25.952;2024-03-06T09:51:42;12.15;;;6.63;;
71558;SDS011;59382;43.852;25.952;2024-03-06T09:54:12;17.35;;;6.80;;
71558;SDS011;59382;43.852;25.952;2024-03-06T09:56:42;13.63;;;7.22;;
71558;SDS011;59382;43.852;25.952;2024-03-06T09:59:14;15.73;;;7.60;;
71558;SDS011;59382;43.852;25.952;2024-03-06T10:01:50;14.80;;;6.95;;
71558;SDS011;59382;43.852;25.952;2024-03-06T10:04:22;14.50;;;6.95;;
71558;SDS011;59382;43.852;25.952;2024-03-06T10:06:56;11.50;;;6.25;;
71558;SDS011;59382;43.852;25.952;2024-03-06T10:09:23;16.65;;;7.40;;
71558;SDS011;59382;43.852;25.952;2024-03-06T10:11:49;14.77;;;7.03;;
71558;SDS011;59382;43.852;25.952;2024-03-06T10:14:18;12.20;;;6.63;;
71558;SDS011;59382;43.852;25.952;2024-03-06T10:16:57;11.75;;;6.47;;
71558;SDS011;59382;43.852;25.952;2024-03-06T10:19:24;15.13;;;7.60;;
71558;SDS011;59382;43.852;25.952;2024-03-06T10:21:52;17.98;;;7.25;;
71558;SDS011;59382;43.852;25.952;2024-03-06T10:24:22;17.02;;;8.10;;
71558;SDS011;59382;43.852;25.952;2024-03-06T10:26:54;16.58;;;7.72;;
71558;SDS011;59382;43.852;25.952;2024-03-06T10:29:21;14.85;;;7.32;;
71558;SDS011;59382;43.852;25.952;2024-03-06T10:31:48;16.15;;;7.85;;
71558;SDS011;59382;43.852;25.952;2024-03-06T10:34:14;17.70;;;8.70;;
71558;SDS011;59382;43.852;25.952;2024-03-06T10:36:40;15.27;;;7.32;;
71558;SDS011;59382;43.852;25.952;2024-03-06T10:39:08;16.63;;;6.80;;
71558;SDS011;59382;43.852;25.952;2024-03-06T10:41:40;15.43;;;6.65;;
71558;SDS011;59382;43.852;25.952;2024-03-06T10:44:08;17.60;;;7.22;;
71558;SDS011;59382;43.852;25.952;2024-03-06T10:46:39;16.35;;;8.35;;
71558;SDS011;59382;43.852;25.952;2024-03-06T10:49:12;17.33;;;7.65;;
71558;SDS011;59382;43.852;25.952;2024-03-06T10:51:42;13.95;;;7.22;;
71558;SDS011;59382;43.852;25.952;2024-03-06T10:54:11;16.73;;;7.72;;
71558;SDS011;59382;43.852;25.952;2024-03-06T10:56:39;18.65;;;8.02;;
71558;SDS011;59382;43.852;25.952;2024-03-06T10:59:08;17.15;;;7.90;;
71558;SDS011;59382;43.852;25.952;2024-03-06T11:01:36;21.75;;;7.20;;
71558;SDS011;59382;43.852;25.952;2024-03-06T11:04:02;20.40;;;9.15;;
71558;SDS011;59382;43.852;25.952;2024-03-06T11:06:30;15.02;;;7.93;;
71558;SDS011;59382;43.852;25.952;2024-03-06T11:08:56;17.40;;;7.57;;
71558;SDS011;59382;43.852;25.952;2024-03-06T11:11:22;14.40;;;7.68;;
71558;SDS011;59382;43.852;25.952;2024-03-06T11:13:49;13.90;;;8.15;;
71558;SDS011;59382;43.852;25.952;2024-03-06T11:16:15;15.98;;;9.32;;
71558;SDS011;59382;43.852;25.952;2024-03-06T11:18:41;14.32;;;8.35;;
71558;SDS011;59382;43.852;25.952;2024-03-06T11:23:36;19.50;;;7.90;;
71558;SDS011;59382;43.852;25.952;2024-03-06T11:26:41;18.10;;;7.72;;
71558;SDS011;59382;43.852;25.952;2024-03-06T11:29:08;14.52;;;7.32;;
71558;SDS011;59382;43.852;25.952;2024-03-06T11:31:33;14.32;;;7.78;;
71558;SDS011;59382;43.852;25.952;2024-03-06T11:34:01;14.25;;;8.25;;
71558;SDS011;59382;43.852;25.952;2024-03-06T11:36:29;23.67;;;9.45;;
71558;SDS011;59382;43.852;25.952;2024-03-06T11:44:12;14.63;;;7.97;;
71558;SDS011;59382;43.852;25.952;2024-03-06T11:46:47;16.95;;;8.32;;
71558;SDS011;59382;43.852;25.952;2024-03-06T11:49:17;13.00;;;6.93;;
71558;SDS011;59382;43.852;25.952;2024-03-06T11:51:46;17.02;;;8.73;;
71558;SDS011;59382;43.852;25.952;2024-03-06T11:54:12;20.17;;;7.85;;
71558;SDS011;59382;43.852;25.952;2024-03-06T11:56:43;18.55;;;8.07;;
71558;SDS011;59382;43.852;25.952;2024-03-06T11:59:10;15.10;;;8.10;;
71558;SDS011;59382;43.852;25.952;2024-03-06T12:01:40;17.30;;;7.10;;
71558;SDS011;59382;43.852;25.952;2024-03-06T12:04:06;22.30;;;7.50;;
71558;SDS011;59382;43.852;25.952;2024-03-06T12:06:34;18.95;;;7.60;;
71558;SDS011;59382;43.852;25.952;2024-03-06T12:09:01;15.43;;;7.00;;
71558;SDS011;59382;43.852;25.952;2024-03-06T12:11:28;14.23;;;6.93;;
71558;SDS011;59382;43.852;25.952;2024-03-06T12:13:56;18.95;;;7.60;;
71558;SDS011;59382;43.852;25.952;2024-03-06T12:16:22;13.90;;;6.47;;
71558;SDS011;59382;43.852;25.952;2024-03-06T12:18:58;13.35;;;7.07;;
71558;SDS011;59382;43.852;25.952;2024-03-06T12:21:27;12.25;;;6.95;;
71558;SDS011;59382;43.852;25.952;2024-03-06T12:24:05;15.57;;;6.60;;
71558;SDS011;59382;43.852;25.952;2024-03-06T12:26:34;15.17;;;7.73;;
71558;SDS011;59382;43.852;25.952;2024-03-06T12:29:08;21.05;;;6.97;;
71558;SDS011;59382;43.852;25.952;2024-03-06T12:31:35;14.65;;;6.75;;
71558;SDS011;59382;43.852;25.952;2024-03-06T12:34:07;16.55;;;6.78;;
71558;SDS011;59382;43.852;25.952;2024-03-06T12:36:32;14.38;;;6.18;;
71558;SDS011;59382;43.852;25.952;2024-03-06T12:38:59;13.95;;;6.93;;
71558;SDS011;59382;43.852;25.952;2024-03-06T12:41:25;15.15;;;8.35;;
71558;SDS011;59382;43.852;25.952;2024-03-06T12:43:51;18.23;;;6.72;;
71558;SDS011;59382;43.852;25.952;2024-03-06T12:46:17;16.55;;;7.70;;
71558;SDS011;59382;43.852;25.952;2024-03-06T12:48:44;20.63;;;7.50;;
71558;SDS011;59382;43.852;25.952;2024-03-06T12:51:10;14.30;;;6.80;;
71558;SDS011;59382;43.852;25.952;2024-03-06T12:53:35;17.98;;;7.18;;
71558;SDS011;59382;43.852;25.952;2024-03-06T12:56:01;18.38;;;6.65;;
71558;SDS011;59382;43.852;25.952;2024-03-06T12:58:27;12.93;;;5.72;;
71558;SDS011;59382;43.852;25.952;2024-03-06T13:00:53;14.30;;;6.18;;
71558;SDS011;59382;43.852;25.952;2024-03-06T13:03:20;15.45;;;7.40;;
71558;SDS011;59382;43.852;25.952;2024-03-06T13:05:45;12.27;;;6.22;;
71558;SDS011;59382;43.852;25.952;2024-03-06T13:08:14;14.93;;;6.63;;
71558;SDS011;59382;43.852;25.952;2024-03-06T13:10:40;13.75;;;6.55;;
71558;SDS011;59382;43.852;25.952;2024-03-06T13:13:06;15.48;;;6.90;;
71558;SDS011;59382;43.852;25.952;2024-03-06T13:15:32;12.10;;;6.35;;
71558;SDS011;59382;43.852;25.952;2024-03-06T13:18:02;9.13;;;4.43;;
71558;SDS011;59382;43.852;25.952;2024-03-06T13:20:31;8.93;;;4.63;;
71558;SDS011;59382;43.852;25.952;2024-03-06T13:22:57;8.95;;;5.03;;
71558;SDS011;59382;43.852;25.952;2024-03-06T13:25:23;9.07;;;4.32;;
71558;SDS011;59382;43.852;25.952;2024-03-06T13:27:49;11.23;;;5.60;;
71558;SDS011;59382;43.852;25.952;2024-03-06T13:30:17;12.85;;;6.10;;
71558;SDS011;59382;43.852;25.952;2024-03-06T13:32:43;10.98;;;6.28;;
71558;SDS011;59382;43.852;25.952;2024-03-06T13:35:10;14.40;;;6.68;;
71558;SDS011;59382;43.852;25.952;2024-03-06T13:37:41;10.40;;;6.15;;
71558;SDS011;59382;43.852;25.952;2024-03-06T13:40:08;16.08;;;6.22;;
71558;SDS011;59382;43.852;25.952;2024-03-06T13:42:35;10.88;;;6.40;;
71558;SDS011;59382;43.852;25.952;2024-03-06T13:45:02;15.55;;;6.53;;
71558;SDS011;59382;43.852;25.952;2024-03-06T13:47:28;11.52;;;5.75;;
71558;SDS011;59382;43.852;25.952;2024-03-06T13:49:55;11.15;;;6.57;;
71558;SDS011;59382;43.852;25.952;2024-03-06T13:52:21;11.27;;;6.22;;
71558;SDS011;59382;43.852;25.952;2024-03-06T13:54:48;14.98;;;6.53;;
71558;SDS011;59382;43.852;25.952;2024-03-06T13:57:15;20.92;;;6.93;;
71558;SDS011;59382;43.852;25.952;2024-03-06T13:59:46;15.40;;;7.25;;
71558;SDS011;59382;43.852;25.952;2024-03-06T14:02:12;13.52;;;5.75;;
71558;SDS011;59382;43.852;25.952;2024-03-06T14:04:37;18.67;;;7.72;;
71558;SDS011;59382;43.852;25.952;2024-03-06T14:07:03;9.02;;;6.13;;
71558;SDS011;59382;43.852;25.952;2024-03-06T14:09:29;10.13;;;5.13;;
71558;SDS011;59382;43.852;25.952;2024-03-06T14:11:55;20.88;;;6.85;;
71558;SDS011;59382;43.852;25.952;2024-03-06T14:14:21;17.85;;;7.57;;
71558;SDS011;59382;43.852;25.952;2024-03-06T14:16:46;11.90;;;6.07;;
71558;SDS011;59382;43.852;25.952;2024-03-06T14:19:12;13.15;;;6.35;;
71558;SDS011;59382;43.852;25.952;2024-03-06T14:21:38;12.30;;;6.55;;
71558;SDS011;59382;43.852;25.952;2024-03-06T14:24:04;13.10;;;7.43;;
71558;SDS011;59382;43.852;25.952;2024-03-06T14:26:34;10.85;;;6.55;;